sensor_id;sensor_type;location;lat;lon;timestamp;P1;durP1;ratioP1;P2;durP2;ratioP2
56271;SDS011;42177;48.914;18.160;2023-08-20T00:03:25;12.3;;;10.1;;
56271;SDS011;42177;48.914;18.160;2023-08-20T00:08:25;10.3;;;9.3;;
56271;SDS011;42177;48.914;18.160;2023-08-20T00:13:25;10.3;;;9.3;;
56271;SDS011;42177;48.914;18.160;2023-08-20T00:18:25;11;;;9.6;;
56271;SDS011;42177;48.914;18.160;2023-08-20T00:23:25;11;;;9.6;;
56271;SDS011;42177;48.914;18.160;2023-08-20T00:28:25;11.3;;;10;;
56271;SDS011;42177;48.914;18.160;2023-08-20T00:33:25;11.3;;;10;;
56271;SDS011;42177;48.914;18.160;2023-08-20T00:38:25;11.2;;;9.8;;
56271;SDS011;42177;48.914;18.160;2023-08-20T00:43:25;11.2;;;9.8;;
56271;SDS011;42177;48.914;18.160;2023-08-20T00:48:25;10.9;;;9.9;;
56271;SDS011;42177;48.914;18.160;2023-08-20T00:53:25;10.9;;;9.9;;
56271;SDS011;42177;48.914;18.160;2023-08-20T00:58:25;11.4;;;10.1;;
56271;SDS011;42177;48.914;18.160;2023-08-20T01:03:25;11.4;;;10.1;;
56271;SDS011;42177;48.914;18.160;2023-08-20T01:08:26;12.5;;;11.3;;
56271;SDS011;42177;48.914;18.160;2023-08-20T01:13:25;12.5;;;11.3;;
56271;SDS011;42177;48.914;18.160;2023-08-20T01:18:25;11.1;;;9.9;;
56271;SDS011;42177;48.914;18.160;2023-08-20T01:23:48;11.1;;;9.9;;
56271;SDS011;42177;48.914;18.160;2023-08-20T01:28:25;11.4;;;10.3;;
56271;SDS011;42177;48.914;18.160;2023-08-20T01:33:25;11.4;;;10.3;;
56271;SDS011;42177;48.914;18.160;2023-08-20T01:38:25;11.3;;;10.3;;
56271;SDS011;42177;48.914;18.160;2023-08-20T01:43:25;11.3;;;10.3;;
56271;SDS011;42177;48.914;18.160;2023-08-20T01:48:25;12.4;;;10.5;;
56271;SDS011;42177;48.914;18.160;2023-08-20T01:53:25;12.4;;;10.5;;
56271;SDS011;42177;48.914;18.160;2023-08-20T01:58:25;12.4;;;9.6;;
56271;SDS011;42177;48.914;18.160;2023-08-20T02:03:25;12.4;;;9.6;;
56271;SDS011;42177;48.914;18.160;2023-08-20T02:08:25;11.1;;;10.1;;
56271;SDS011;42177;48.914;18.160;2023-08-20T02:13:25;11.1;;;10.1;;
56271;SDS011;42177;48.914;18.160;2023-08-20T02:18:25;10.8;;;9.7;;
56271;SDS011;42177;48.914;18.160;2023-08-20T02:23:25;10.8;;;9.7;;
56271;SDS011;42177;48.914;18.160;2023-08-20T02:28:25;11.4;;;10.3;;
56271;SDS011;42177;48.914;18.160;2023-08-20T02:33:25;11.4;;;10.3;;
56271;SDS011;42177;48.914;18.160;2023-08-20T02:38:25;12.8;;;9.9;;
56271;SDS011;42177;48.914;18.160;2023-08-20T02:43:25;12.8;;;9.9;;
56271;SDS011;42177;48.914;18.160;2023-08-20T02:48:25;10.8;;;9.8;;
56271;SDS011;42177;48.914;18.160;2023-08-20T02:53:25;10.8;;;9.8;;
56271;SDS011;42177;48.914;18.160;2023-08-20T02:58:25;10;;;9;;
56271;SDS011;42177;48.914;18.160;2023-08-20T03:03:25;10;;;9;;
56271;SDS011;42177;48.914;18.160;2023-08-20T03:08:25;10.1;;;9.2;;
56271;SDS011;42177;48.914;18.160;2023-08-20T03:13:25;10.1;;;9.2;;
56271;SDS011;42177;48.914;18.160;2023-08-20T03:18:25;10.7;;;9.1;;
56271;SDS011;42177;48.914;18.160;2023-08-20T03:23:25;10.7;;;9.1;;
56271;SDS011;42177;48.914;18.160;2023-08-20T03:28:25;10.8;;;9.7;;
56271;SDS011;42177;48.914;18.160;2023-08-20T03:33:25;10.8;;;9.7;;
56271;SDS011;42177;48.914;18.160;2023-08-20T03:38:25;10.4;;;9.4;;
56271;SDS011;42177;48.914;18.160;2023-08-20T03:43:25;10.4;;;9.4;;
56271;SDS011;42177;48.914;18.160;2023-08-20T03:48:25;11.7;;;9.7;;
56271;SDS011;42177;48.914;18.160;2023-08-20T03:53:25;11.7;;;9.7;;
56271;SDS011;42177;48.914;18.160;2023-08-20T03:58:25;11.6;;;10.1;;
56271;SDS011;42177;48.914;18.160;2023-08-20T04:03:25;11.6;;;10.1;;
56271;SDS011;42177;48.914;18.160;2023-08-20T04:08:25;11.3;;;10.1;;
56271;SDS011;42177;48.914;18.160;2023-08-20T04:13:25;11.3;;;10.1;;
56271;SDS011;42177;48.914;18.160;2023-08-20T04:18:25;11.4;;;10.2;;
56271;SDS011;42177;48.914;18.160;2023-08-20T04:23:25;11.4;;;10.2;;
56271;SDS011;42177;48.914;18.160;2023-08-20T04:28:25;12.3;;;10.1;;
56271;SDS011;42177;48.914;18.160;2023-08-20T04:33:25;12.3;;;10.1;;
56271;SDS011;42177;48.914;18.160;2023-08-20T04:38:25;11.3;;;10.1;;
56271;SDS011;42177;48.914;18.160;2023-08-20T04:43:25;11.3;;;10.1;;
56271;SDS011;42177;48.914;18.160;2023-08-20T04:48:25;12.3;;;11.2;;
56271;SDS011;42177;48.914;18.160;2023-08-20T04:53:25;12.3;;;11.2;;
56271;SDS011;42177;48.914;18.160;2023-08-20T04:58:25;12.4;;;10.2;;
56271;SDS011;42177;48.914;18.160;2023-08-20T05:03:25;12.4;;;10.2;;
56271;SDS011;42177;48.914;18.160;2023-08-20T05:08:25;23.4;;;20;;
56271;SDS011;42177;48.914;18.160;2023-08-20T05:13:25;23.4;;;20;;
56271;SDS011;42177;48.914;18.160;2023-08-20T05:18:25;21.4;;;19.3;;
56271;SDS011;42177;48.914;18.160;2023-08-20T05:23:25;21.4;;;19.3;;
56271;SDS011;42177;48.914;18.160;2023-08-20T05:28:25;12.6;;;11.3;;
56271;SDS011;42177;48.914;18.160;2023-08-20T05:33:25;12.6;;;11.3;;
56271;SDS011;42177;48.914;18.160;2023-08-20T05:38:25;14.1;;;11.8;;
56271;SDS011;42177;48.914;18.160;2023-08-20T05:43:25;14.1;;;11.8;;
56271;SDS011;42177;48.914;18.160;2023-08-20T05:48:25;13;;;11.6;;
56271;SDS011;42177;48.914;18.160;2023-08-20T05:53:25;13;;;11.6;;
56271;SDS011;42177;48.914;18.160;2023-08-20T05:58:25;13.9;;;12.6;;
56271;SDS011;42177;48.914;18.160;2023-08-20T06:03:25;13.9;;;12.6;;
56271;SDS011;42177;48.914;18.160;2023-08-20T06:08:25;13.3;;;12;;
56271;SDS011;42177;48.914;18.160;2023-08-20T06:13:25;13.3;;;12;;
56271;SDS011;42177;48.914;18.160;2023-08-20T06:18:25;12.7;;;11.5;;
56271;SDS011;42177;48.914;18.160;2023-08-20T06:23:25;12.7;;;11.5;;
56271;SDS011;42177;48.914;18.160;2023-08-20T06:28:25;14.2;;;11.4;;
56271;SDS011;42177;48.914;18.160;2023-08-20T06:33:25;14.2;;;11.4;;
56271;SDS011;42177;48.914;18.160;2023-08-20T06:38:25;12.5;;;11.2;;
56271;SDS011;42177;48.914;18.160;2023-08-20T06:43:25;12.5;;;11.2;;
56271;SDS011;42177;48.914;18.160;2023-08-20T06:48:25;12.6;;;11.4;;
56271;SDS011;42177;48.914;18.160;2023-08-20T06:53:25;12.6;;;11.4;;
56271;SDS011;42177;48.914;18.160;2023-08-20T06:58:25;12;;;10.8;;
56271;SDS011;42177;48.914;18.160;2023-08-20T07:03:25;12;;;10.8;;
56271;SDS011;42177;48.914;18.160;2023-08-20T07:08:25;11.7;;;10.6;;
56271;SDS011;42177;48.914;18.160;2023-08-20T07:13:25;11.7;;;10.6;;
56271;SDS011;42177;48.914;18.160;2023-08-20T07:18:25;11.2;;;10.1;;
56271;SDS011;42177;48.914;18.160;2023-08-20T07:23:25;11.2;;;10.1;;
56271;SDS011;42177;48.914;18.160;2023-08-20T07:28:25;10.6;;;9.1;;
56271;SDS011;42177;48.914;18.160;2023-08-20T07:33:25;10.6;;;9.1;;
56271;SDS011;42177;48.914;18.160;2023-08-20T07:38:25;11.3;;;9.3;;
56271;SDS011;42177;48.914;18.160;2023-08-20T07:43:25;11.3;;;9.3;;
56271;SDS011;42177;48.914;18.160;2023-08-20T07:48:25;11;;;9.9;;
56271;SDS011;42177;48.914;18.160;2023-08-20T07:53:25;11;;;9.9;;
56271;SDS011;42177;48.914;18.160;2023-08-20T07:58:25;10.1;;;9.1;;
56271;SDS011;42177;48.914;18.160;2023-08-20T08:03:25;10.1;;;9.1;;
56271;SDS011;42177;48.914;18.160;2023-08-20T08:08:25;9.5;;;8.4;;
56271;SDS011;42177;48.914;18.160;2023-08-20T08:13:25;9.5;;;8.4;;
56271;SDS011;42177;48.914;18.160;2023-08-20T08:18:25;9.4;;;8.3;;
56271;SDS011;42177;48.914;18.160;2023-08-20T08:23:25;9.4;;;8.3;;
56271;SDS011;42177;48.914;18.160;2023-08-20T08:28:25;10.9;;;7.9;;
56271;SDS011;42177;48.914;18.160;2023-08-20T08:33:25;10.9;;;7.9;;
56271;SDS011;42177;48.914;18.160;2023-08-20T08:38:25;10.8;;;8.2;;
56271;SDS011;42177;48.914;18.160;2023-08-20T08:43:25;10.8;;;8.2;;
56271;SDS011;42177;48.914;18.160;2023-08-20T08:48:25;8.7;;;7.8;;
56271;SDS011;42177;48.914;18.160;2023-08-20T08:53:25;8.7;;;7.8;;
56271;SDS011;42177;48.914;18.160;2023-08-20T08:58:25;8.7;;;7.7;;
56271;SDS011;42177;48.914;18.160;2023-08-20T09:03:25;8.7;;;7.7;;
56271;SDS011;42177;48.914;18.160;2023-08-20T09:08:26;8.7;;;7.1;;
56271;SDS011;42177;48.914;18.160;2023-08-20T09:13:25;8.7;;;7.1;;
56271;SDS011;42177;48.914;18.160;2023-08-20T09:18:25;9.1;;;7;;
56271;SDS011;42177;48.914;18.160;2023-08-20T09:23:27;9.1;;;7;;
56271;SDS011;42177;48.914;18.160;2023-08-20T09:28:25;8.9;;;7.2;;
56271;SDS011;42177;48.914;18.160;2023-08-20T09:33:25;8.9;;;7.2;;
56271;SDS011;42177;48.914;18.160;2023-08-20T09:38:25;7.8;;;6.9;;
56271;SDS011;42177;48.914;18.160;2023-08-20T09:43:25;7.8;;;6.9;;
56271;SDS011;42177;48.914;18.160;2023-08-20T09:48:25;10.7;;;6.7;;
56271;SDS011;42177;48.914;18.160;2023-08-20T09:53:25;10.7;;;6.7;;
56271;SDS011;42177;48.914;18.160;2023-08-20T09:58:25;6.9;;;6.2;;
56271;SDS011;42177;48.914;18.160;2023-08-20T10:03:25;6.9;;;6.2;;
56271;SDS011;42177;48.914;18.160;2023-08-20T10:08:25;6.8;;;6.1;;
56271;SDS011;42177;48.914;18.160;2023-08-20T10:13:25;6.8;;;6.1;;
56271;SDS011;42177;48.914;18.160;2023-08-20T10:18:25;8.3;;;6.1;;
56271;SDS011;42177;48.914;18.160;2023-08-20T10:23:25;8.3;;;6.1;;
56271;SDS011;42177;48.914;18.160;2023-08-20T10:28:25;8;;;6;;
56271;SDS011;42177;48.914;18.160;2023-08-20T10:33:25;8;;;6;;
56271;SDS011;42177;48.914;18.160;2023-08-20T10:38:25;6.7;;;5.8;;
56271;SDS011;42177;48.914;18.160;2023-08-20T10:43:26;6.7;;;5.8;;
56271;SDS011;42177;48.914;18.160;2023-08-20T10:48:26;7.2;;;5.7;;
56271;SDS011;42177;48.914;18.160;2023-08-20T10:53:25;7.2;;;5.7;;
56271;SDS011;42177;48.914;18.160;2023-08-20T10:58:25;6.3;;;5.7;;
56271;SDS011;42177;48.914;18.160;2023-08-20T11:03:25;6.3;;;5.7;;
56271;SDS011;42177;48.914;18.160;2023-08-20T11:08:25;8.2;;;5.3;;
56271;SDS011;42177;48.914;18.160;2023-08-20T11:13:25;8.2;;;5.3;;
56271;SDS011;42177;48.914;18.160;2023-08-20T11:18:25;7.2;;;5;;
56271;SDS011;42177;48.914;18.160;2023-08-20T11:23:25;7.2;;;5;;
56271;SDS011;42177;48.914;18.160;2023-08-20T11:28:25;6.4;;;4.8;;
56271;SDS011;42177;48.914;18.160;2023-08-20T11:33:25;6.4;;;4.8;;
56271;SDS011;42177;48.914;18.160;2023-08-20T11:38:25;5.4;;;4.9;;
56271;SDS011;42177;48.914;18.160;2023-08-20T11:43:26;5.4;;;4.9;;
56271;SDS011;42177;48.914;18.160;2023-08-20T11:48:25;7;;;4.7;;
56271;SDS011;42177;48.914;18.160;2023-08-20T11:53:25;7;;;4.7;;
56271;SDS011;42177;48.914;18.160;2023-08-20T11:58:25;6.6;;;4.9;;
56271;SDS011;42177;48.914;18.160;2023-08-20T12:03:28;6.6;;;4.9;;
56271;SDS011;42177;48.914;18.160;2023-08-20T12:08:25;5.1;;;4.6;;
56271;SDS011;42177;48.914;18.160;2023-08-20T12:13:25;5.1;;;4.6;;
56271;SDS011;42177;48.914;18.160;2023-08-20T12:18:25;4.9;;;4.4;;
56271;SDS011;42177;48.914;18.160;2023-08-20T12:23:25;4.9;;;4.4;;
56271;SDS011;42177;48.914;18.160;2023-08-20T12:28:25;5.1;;;4.6;;
56271;SDS011;42177;48.914;18.160;2023-08-20T12:33:25;5.1;;;4.6;;
56271;SDS011;42177;48.914;18.160;2023-08-20T12:38:25;6.7;;;4.7;;
56271;SDS011;42177;48.914;18.160;2023-08-20T12:43:25;6.7;;;4.7;;
56271;SDS011;42177;48.914;18.160;2023-08-20T12:48:25;5.4;;;4.7;;
56271;SDS011;42177;48.914;18.160;2023-08-20T12:53:25;5.4;;;4.7;;
56271;SDS011;42177;48.914;18.160;2023-08-20T12:58:25;10.5;;;8.6;;
56271;SDS011;42177;48.914;18.160;2023-08-20T13:03:25;10.5;;;8.6;;
56271;SDS011;42177;48.914;18.160;2023-08-20T13:08:25;5.3;;;4.7;;
56271;SDS011;42177;48.914;18.160;2023-08-20T13:13:25;5.3;;;4.7;;
56271;SDS011;42177;48.914;18.160;2023-08-20T13:18:25;5.8;;;4.7;;
56271;SDS011;42177;48.914;18.160;2023-08-20T13:23:25;5.8;;;4.7;;
56271;SDS011;42177;48.914;18.160;2023-08-20T13:28:25;15.7;;;14.1;;
56271;SDS011;42177;48.914;18.160;2023-08-20T13:33:25;15.7;;;14.1;;
56271;SDS011;42177;48.914;18.160;2023-08-20T13:38:25;7.4;;;4.5;;
56271;SDS011;42177;48.914;18.160;2023-08-20T13:43:25;7.4;;;4.5;;
56271;SDS011;42177;48.914;18.160;2023-08-20T13:48:25;5.8;;;4.7;;
56271;SDS011;42177;48.914;18.160;2023-08-20T13:53:25;5.8;;;4.7;;
56271;SDS011;42177;48.914;18.160;2023-08-20T13:58:25;24.9;;;22.5;;
56271;SDS011;42177;48.914;18.160;2023-08-20T14:03:25;24.9;;;22.5;;
56271;SDS011;42177;48.914;18.160;2023-08-20T14:08:25;23;;;20.7;;
56271;SDS011;42177;48.914;18.160;2023-08-20T14:13:25;23;;;20.7;;
56271;SDS011;42177;48.914;18.160;2023-08-20T14:18:25;5.1;;;4.2;;
56271;SDS011;42177;48.914;18.160;2023-08-20T14:23:25;5.1;;;4.2;;
56271;SDS011;42177;48.914;18.160;2023-08-20T14:28:25;5.1;;;4.3;;
56271;SDS011;42177;48.914;18.160;2023-08-20T14:33:25;5.1;;;4.3;;
56271;SDS011;42177;48.914;18.160;2023-08-20T14:38:25;5.7;;;4.2;;
56271;SDS011;42177;48.914;18.160;2023-08-20T14:43:25;5.7;;;4.2;;
56271;SDS011;42177;48.914;18.160;2023-08-20T14:48:25;4.3;;;3.5;;
56271;SDS011;42177;48.914;18.160;2023-08-20T14:53:25;4.3;;;3.5;;
56271;SDS011;42177;48.914;18.160;2023-08-20T14:58:25;3.5;;;3.2;;
56271;SDS011;42177;48.914;18.160;2023-08-20T15:03:25;3.5;;;3.2;;
56271;SDS011;42177;48.914;18.160;2023-08-20T15:08:25;5.7;;;3.4;;
56271;SDS011;42177;48.914;18.160;2023-08-20T15:13:26;5.7;;;3.4;;
56271;SDS011;42177;48.914;18.160;2023-08-20T15:18:25;4.8;;;3.7;;
56271;SDS011;42177;48.914;18.160;2023-08-20T15:23:25;4.8;;;3.7;;
56271;SDS011;42177;48.914;18.160;2023-08-20T15:28:25;4.1;;;3.3;;
56271;SDS011;42177;48.914;18.160;2023-08-20T15:33:25;4.1;;;3.3;;
56271;SDS011;42177;48.914;18.160;2023-08-20T15:38:25;4.8;;;3.2;;
56271;SDS011;42177;48.914;18.160;2023-08-20T15:43:25;4.8;;;3.2;;
56271;SDS011;42177;48.914;18.160;2023-08-20T15:48:25;5.4;;;3;;
56271;SDS011;42177;48.914;18.160;2023-08-20T15:53:25;5.4;;;3;;
56271;SDS011;42177;48.914;18.160;2023-08-20T15:58:25;5.2;;;3.5;;
56271;SDS011;42177;48.914;18.160;2023-08-20T16:03:25;5.2;;;3.5;;
56271;SDS011;42177;48.914;18.160;2023-08-20T16:08:25;4.8;;;3.1;;
56271;SDS011;42177;48.914;18.160;2023-08-20T16:13:25;4.8;;;3.1;;
56271;SDS011;42177;48.914;18.160;2023-08-20T16:18:25;5.1;;;3.3;;
56271;SDS011;42177;48.914;18.160;2023-08-20T16:23:25;5.1;;;3.3;;
56271;SDS011;42177;48.914;18.160;2023-08-20T16:28:25;5.3;;;3.3;;
56271;SDS011;42177;48.914;18.160;2023-08-20T16:33:25;5.3;;;3.3;;
56271;SDS011;42177;48.914;18.160;2023-08-20T16:38:25;5.1;;;4.2;;
56271;SDS011;42177;48.914;18.160;2023-08-20T16:43:25;5.1;;;4.2;;
56271;SDS011;42177;48.914;18.160;2023-08-20T16:48:25;6.2;;;4.3;;
56271;SDS011;42177;48.914;18.160;2023-08-20T16:53:25;6.2;;;4.3;;
56271;SDS011;42177;48.914;18.160;2023-08-20T16:58:25;6.8;;;4.3;;
56271;SDS011;42177;48.914;18.160;2023-08-20T17:03:25;6.8;;;4.3;;
56271;SDS011;42177;48.914;18.160;2023-08-20T17:08:25;7.3;;;4.5;;
56271;SDS011;42177;48.914;18.160;2023-08-20T17:13:25;7.3;;;4.5;;
56271;SDS011;42177;48.914;18.160;2023-08-20T17:18:25;5.5;;;3.9;;
56271;SDS011;42177;48.914;18.160;2023-08-20T17:23:25;5.5;;;3.9;;
56271;SDS011;42177;48.914;18.160;2023-08-20T17:28:25;5.9;;;4.4;;
56271;SDS011;42177;48.914;18.160;2023-08-20T17:33:25;5.9;;;4.4;;
56271;SDS011;42177;48.914;18.160;2023-08-20T17:38:25;8.1;;;4.9;;
56271;SDS011;42177;48.914;18.160;2023-08-20T17:43:25;8.1;;;4.9;;
56271;SDS011;42177;48.914;18.160;2023-08-20T17:48:25;7.7;;;5.7;;
56271;SDS011;42177;48.914;18.160;2023-08-20T17:53:25;7.7;;;5.7;;
56271;SDS011;42177;48.914;18.160;2023-08-20T17:58:25;6.9;;;4.6;;
56271;SDS011;42177;48.914;18.160;2023-08-20T18:03:25;6.9;;;4.6;;
56271;SDS011;42177;48.914;18.160;2023-08-20T18:08:25;6.9;;;5.4;;
56271;SDS011;42177;48.914;18.160;2023-08-20T18:13:25;6.9;;;5.4;;
56271;SDS011;42177;48.914;18.160;2023-08-20T18:18:25;7;;;5.3;;
56271;SDS011;42177;48.914;18.160;2023-08-20T18:23:25;7;;;5.3;;
56271;SDS011;42177;48.914;18.160;2023-08-20T18:28:25;7;;;5.6;;
56271;SDS011;42177;48.914;18.160;2023-08-20T18:33:25;7;;;5.6;;
56271;SDS011;42177;48.914;18.160;2023-08-20T18:38:40;8.9;;;5.7;;
56271;SDS011;42177;48.914;18.160;2023-08-20T18:43:25;8.9;;;5.7;;
56271;SDS011;42177;48.914;18.160;2023-08-20T18:48:26;8;;;5.3;;
56271;SDS011;42177;48.914;18.160;2023-08-20T18:53:25;8;;;5.3;;
56271;SDS011;42177;48.914;18.160;2023-08-20T18:58:25;7.8;;;5.5;;
56271;SDS011;42177;48.914;18.160;2023-08-20T19:03:25;7.8;;;5.5;;
56271;SDS011;42177;48.914;18.160;2023-08-20T19:08:25;14.3;;;9.4;;
56271;SDS011;42177;48.914;18.160;2023-08-20T19:13:25;14.3;;;9.4;;
56271;SDS011;42177;48.914;18.160;2023-08-20T19:18:25;11.4;;;7;;
56271;SDS011;42177;48.914;18.160;2023-08-20T19:23:25;11.4;;;7;;
56271;SDS011;42177;48.914;18.160;2023-08-20T19:28:25;7.9;;;5.7;;
56271;SDS011;42177;48.914;18.160;2023-08-20T19:33:25;7.9;;;5.7;;
56271;SDS011;42177;48.914;18.160;2023-08-20T19:38:25;7.8;;;5.9;;
56271;SDS011;42177;48.914;18.160;2023-08-20T19:43:25;7.8;;;5.9;;
56271;SDS011;42177;48.914;18.160;2023-08-20T19:48:25;8.6;;;5.9;;
56271;SDS011;42177;48.914;18.160;2023-08-20T19:53:25;8.6;;;5.9;;
56271;SDS011;42177;48.914;18.160;2023-08-20T19:58:25;8.6;;;6;;
56271;SDS011;42177;48.914;18.160;2023-08-20T20:03:25;8.6;;;6;;
56271;SDS011;42177;48.914;18.160;2023-08-20T20:08:25;10.5;;;6.1;;
56271;SDS011;42177;48.914;18.160;2023-08-20T20:13:25;10.5;;;6.1;;
56271;SDS011;42177;48.914;18.160;2023-08-20T20:18:25;7.8;;;6;;
56271;SDS011;42177;48.914;18.160;2023-08-20T20:23:25;7.8;;;6;;
56271;SDS011;42177;48.914;18.160;2023-08-20T20:28:25;7.3;;;5.8;;
56271;SDS011;42177;48.914;18.160;2023-08-20T20:33:25;7.3;;;5.8;;
56271;SDS011;42177;48.914;18.160;2023-08-20T20:38:26;8.9;;;6.2;;
56271;SDS011;42177;48.914;18.160;2023-08-20T20:43:25;8.9;;;6.2;;
56271;SDS011;42177;48.914;18.160;2023-08-20T20:48:25;8.1;;;6.6;;
56271;SDS011;42177;48.914;18.160;2023-08-20T20:53:25;8.1;;;6.6;;
56271;SDS011;42177;48.914;18.160;2023-08-20T20:58:25;10.3;;;7.4;;
56271;SDS011;42177;48.914;18.160;2023-08-20T21:03:25;10.3;;;7.4;;
56271;SDS011;42177;48.914;18.160;2023-08-20T21:08:25;8;;;6.7;;
56271;SDS011;42177;48.914;18.160;2023-08-20T21:13:25;8;;;6.7;;
56271;SDS011;42177;48.914;18.160;2023-08-20T21:18:25;11.4;;;6.6;;
56271;SDS011;42177;48.914;18.160;2023-08-20T21:23:25;11.4;;;6.6;;
56271;SDS011;42177;48.914;18.160;2023-08-20T21:28:25;9;;;7.2;;
56271;SDS011;42177;48.914;18.160;2023-08-20T21:33:25;9;;;7.2;;
56271;SDS011;42177;48.914;18.160;2023-08-20T21:38:25;8.6;;;6.9;;
56271;SDS011;42177;48.914;18.160;2023-08-20T21:43:25;8.6;;;6.9;;
56271;SDS011;42177;48.914;18.160;2023-08-20T21:48:25;11.6;;;7.2;;
56271;SDS011;42177;48.914;18.160;2023-08-20T21:53:25;11.6;;;7.2;;
56271;SDS011;42177;48.914;18.160;2023-08-20T21:58:25;9.3;;;6.6;;
56271;SDS011;42177;48.914;18.160;2023-08-20T22:03:25;9.3;;;6.6;;
56271;SDS011;42177;48.914;18.160;2023-08-20T22:08:25;7.9;;;6.7;;
56271;SDS011;42177;48.914;18.160;2023-08-20T22:13:25;7.9;;;6.7;;
56271;SDS011;42177;48.914;18.160;2023-08-20T22:18:25;9.2;;;6.7;;
56271;SDS011;42177;48.914;18.160;2023-08-20T22:23:25;9.2;;;6.7;;
56271;SDS011;42177;48.914;18.160;2023-08-20T22:28:25;9.2;;;6.9;;
56271;SDS011;42177;48.914;18.160;2023-08-20T22:33:25;9.2;;;6.9;;
56271;SDS011;42177;48.914;18.160;2023-08-20T22:38:25;9.3;;;7.5;;
56271;SDS011;42177;48.914;18.160;2023-08-20T22:43:25;9.3;;;7.5;;
56271;SDS011;42177;48.914;18.160;2023-08-20T22:48:25;7.7;;;7;;
56271;SDS011;42177;48.914;18.160;2023-08-20T22:53:25;7.7;;;7;;
56271;SDS011;42177;48.914;18.160;2023-08-20T22:58:25;9.3;;;7.2;;
56271;SDS011;42177;48.914;18.160;2023-08-20T23:03:25;9.3;;;7.2;;
56271;SDS011;42177;48.914;18.160;2023-08-20T23:08:25;10;;;7.3;;
56271;SDS011;42177;48.914;18.160;2023-08-20T23:13:25;10;;;7.3;;
56271;SDS011;42177;48.914;18.160;2023-08-20T23:18:25;7.7;;;7;;
56271;SDS011;42177;48.914;18.160;2023-08-20T23:23:25;7.7;;;7;;
56271;SDS011;42177;48.914;18.160;2023-08-20T23:28:25;9.2;;;7;;
56271;SDS011;42177;48.914;18.160;2023-08-20T23:33:25;9.2;;;7;;
56271;SDS011;42177;48.914;18.160;2023-08-20T23:38:25;7.5;;;6.8;;
56271;SDS011;42177;48.914;18.160;2023-08-20T23:43:25;7.5;;;6.8;;
56271;SDS011;42177;48.914;18.160;2023-08-20T23:48:25;9.9;;;7.9;;
56271;SDS011;42177;48.914;18.160;2023-08-20T23:53:25;9.9;;;7.9;;
56271;SDS011;42177;48.914;18.160;2023-08-20T23:58:25;10.7;;;7.3;;
